PADU

Details ICAO PADU (DUT)
Name UNALASKA
Region USA (Alaska)
Timezone America/Adak (UTC-10.0)
Plans Departing 26
Arriving 26
Stats Elevation 22 ft / 7 m (AMSL)
Location 53.899070° -166.545064°
Runways 1
Magnetic Variation 9.297° E
Sunrise 2017-02-22 18:10:54 UTC / 2017-02-22 08:10:54 Local
Sunset 2017-02-23 04:31:15 UTC / 2017-02-22 18:31:15 Local
Advertisement - Login to hide

Runways

ID Width Length Bearing (true) Bearing (mag) Surface Threshold Offset Overrun Length
12 100 ft / 30 m 3,895 ft / 1,187 m 135.64° 126.34° Asphalt 100 ft / 30 m 0 ft / 0 m
30 100 ft / 30 m 3,895 ft / 1,187 m 315.65° 306.35° Asphalt 101 ft / 31 m 0 ft / 0 m

Map

Weather

Temperature
Clouds and Precipitation
Forecast for 2017-02-23 00:00 UTC. Updated 12 minutes ago
Winds

METAR

PADU 221856Z 13009KT 10SM OVC042 08/03 A3000

TAF

TAF PADU 221740Z 2218/2318 17015G25KT P6SM SCT025 BKN035 FM222000 16022G35KT P6SM SCT025 BKN040 WS010/18055KT FM230000 16035G45KT P6SM SCT035 FM230900 15015G25KT P6SM -SHRA BKN020

Frequencies

Recorded 125.80 MHz AWOS 3
Unicom 122.60 MHz CTAF
Warning: Do not use this data for real-world aviation or navigation. No guarantee of current accuracy is given.